createdAt,value
2023-10-15T00:00:01.009Z, 37.77
2023-10-15T00:01:01.024Z, 37.80
2023-10-15T00:02:01.032Z, 37.79
2023-10-15T00:03:01.279Z, 37.79
2023-10-15T00:04:01.098Z, 37.78
2023-10-15T00:05:01.138Z, 37.80
2023-10-15T00:06:01.149Z, 37.83
2023-10-15T00:07:01.123Z, 37.74
2023-10-15T00:08:01.179Z, 37.74
2023-10-15T00:09:01.140Z, 37.77
2023-10-15T00:10:01.153Z, 37.77
2023-10-15T00:11:01.215Z, 37.77
2023-10-15T00:12:01.165Z, 37.75
2023-10-15T00:13:01.150Z, 37.75
2023-10-15T00:14:01.170Z, 37.71
2023-10-15T00:15:01.246Z, 37.72
2023-10-15T00:16:01.239Z, 37.74
2023-10-15T00:17:01.273Z, 37.71
2023-10-15T00:18:01.456Z, 37.71
2023-10-15T00:19:01.263Z, 37.72
2023-10-15T00:20:01.343Z, 37.75
2023-10-15T00:21:01.273Z, 37.72
2023-10-15T00:22:01.276Z, 37.69
2023-10-15T00:23:01.291Z, 37.69
2023-10-15T00:24:01.297Z, 37.69
2023-10-15T00:25:01.373Z, 37.65
2023-10-15T00:26:01.385Z, 37.63
2023-10-15T00:27:01.407Z, 37.64
2023-10-15T00:28:01.386Z, 37.62
2023-10-15T00:29:01.375Z, 37.62
2023-10-15T00:30:01.438Z, 37.60
2023-10-15T00:31:01.385Z, 37.62
2023-10-15T00:32:01.484Z, 37.63
2023-10-15T00:33:01.518Z, 37.65
2023-10-15T00:34:01.449Z, 37.61
2023-10-15T00:35:01.470Z, 37.60
2023-10-15T00:36:01.437Z, 37.61
2023-10-15T00:37:03.194Z, 37.53
2023-10-15T00:38:01.437Z, 37.57
2023-10-15T00:39:01.450Z, 37.60
2023-10-15T00:40:01.478Z, 37.59
2023-10-15T00:41:01.581Z, 37.61
2023-10-15T00:42:01.505Z, 37.62
2023-10-15T00:43:01.596Z, 37.58
2023-10-15T00:44:01.555Z, 37.57
2023-10-15T00:45:01.586Z, 37.57
2023-10-15T00:46:01.599Z, 37.57
2023-10-15T00:47:01.695Z, 37.54
2023-10-15T00:48:01.622Z, 37.54
2023-10-15T00:49:01.597Z, 37.57
2023-10-15T00:50:01.677Z, 37.56
2023-10-15T00:51:01.666Z, 37.51
2023-10-15T00:52:01.689Z, 37.49
2023-10-15T00:53:01.686Z, 37.48
2023-10-15T00:54:01.729Z, 37.48
2023-10-15T00:55:01.701Z, 37.48
2023-10-15T00:56:01.754Z, 37.46
2023-10-15T00:57:01.729Z, 37.48
2023-10-15T00:58:01.713Z, 37.46
2023-10-15T00:59:01.788Z, 37.46
2023-10-15T01:00:01.721Z, 37.44
2023-10-15T01:01:01.761Z, 37.38
2023-10-15T01:02:01.814Z, 37.39
2023-10-15T01:03:01.886Z, 37.39
2023-10-15T01:04:01.752Z, 37.38
2023-10-15T01:05:01.970Z, 37.36
2023-10-15T01:06:01.841Z, 37.37
2023-10-15T01:07:01.976Z, 37.35
2023-10-15T01:08:01.870Z, 37.37
2023-10-15T01:09:01.909Z, 37.34
2023-10-15T01:10:01.917Z, 37.33
2023-10-15T01:11:01.876Z, 37.33
2023-10-15T01:12:01.939Z, 37.32
2023-10-15T01:13:01.930Z, 37.34
2023-10-15T01:14:01.982Z, 37.35
2023-10-15T01:15:01.967Z, 37.31
2023-10-15T01:16:01.988Z, 37.31
2023-10-15T01:17:02.488Z, 37.34
2023-10-15T01:18:02.060Z, 37.33
2023-10-15T01:19:02.034Z, 37.33
2023-10-15T01:20:02.047Z, 37.30
2023-10-15T01:21:02.077Z, 37.27
2023-10-15T01:22:02.058Z, 37.30
2023-10-15T01:23:02.051Z, 37.27
2023-10-15T01:24:02.109Z, 37.27
2023-10-15T01:25:02.106Z, 37.27
2023-10-15T01:26:02.291Z, 37.27
2023-10-15T01:27:02.152Z, 37.29
2023-10-15T01:28:02.113Z, 37.26
2023-10-15T01:29:02.094Z, 37.27
2023-10-15T01:30:02.107Z, 37.27
2023-10-15T01:31:02.163Z, 37.23
2023-10-15T01:32:02.157Z, 37.23
2023-10-15T01:33:02.211Z, 37.22
2023-10-15T01:34:02.152Z, 37.27
2023-10-15T01:35:02.476Z, 37.19
2023-10-15T01:36:02.214Z, 37.18
2023-10-15T01:37:02.171Z, 37.20
2023-10-15T01:38:02.302Z, 37.21
2023-10-15T01:39:02.242Z, 37.23
2023-10-15T01:40:02.809Z, 37.19
2023-10-15T01:41:02.296Z, 37.13
2023-10-15T01:42:02.328Z, 37.12
2023-10-15T01:43:02.283Z, 37.12
2023-10-15T01:44:02.274Z, 37.10
2023-10-15T01:45:02.280Z, 37.06
2023-10-15T01:46:02.304Z, 37.05
2023-10-15T01:47:02.341Z, 37.05
2023-10-15T01:48:02.336Z, 37.06
2023-10-15T01:49:02.379Z, 37.04
2023-10-15T01:50:02.523Z, 37.03
2023-10-15T01:51:02.430Z, 37.01
2023-10-15T01:52:02.445Z, 37.03
2023-10-15T01:53:03.147Z, 37.05
2023-10-15T01:54:02.451Z, 37.03
2023-10-15T01:55:02.402Z, 37.07
2023-10-15T01:56:02.475Z, 37.04
2023-10-15T01:57:02.518Z, 37.09
2023-10-15T01:58:02.731Z, 37.10
2023-10-15T01:59:02.535Z, 37.04
2023-10-15T02:00:02.506Z, 37.02
2023-10-15T02:01:02.511Z, 36.97
2023-10-15T02:02:02.577Z, 36.99
2023-10-15T02:03:02.712Z, 37.02
2023-10-15T02:04:02.639Z, 36.98
2023-10-15T02:05:02.565Z, 36.99
2023-10-15T02:06:02.515Z, 36.99
2023-10-15T02:07:02.604Z, 36.98
2023-10-15T02:08:02.605Z, 36.96
2023-10-15T02:09:02.578Z, 36.89
2023-10-15T02:10:02.570Z, 36.88
2023-10-15T02:11:02.623Z, 36.94
2023-10-15T02:12:02.603Z, 36.93
2023-10-15T02:13:02.601Z, 36.93
2023-10-15T02:14:02.674Z, 36.92
2023-10-15T02:15:02.627Z, 36.91
2023-10-15T02:16:02.757Z, 36.93
2023-10-15T02:17:02.796Z, 36.91
2023-10-15T02:18:02.793Z, 36.92
2023-10-15T02:19:02.682Z, 36.89
2023-10-15T02:20:02.681Z, 36.86
2023-10-15T02:21:02.721Z, 36.84
2023-10-15T02:22:02.714Z, 36.89
2023-10-15T02:23:02.720Z, 36.85
2023-10-15T02:24:02.728Z, 36.86
2023-10-15T02:25:02.847Z, 36.84
2023-10-15T02:26:02.932Z, 36.87
2023-10-15T02:27:02.799Z, 36.86
2023-10-15T02:28:02.870Z, 36.85
2023-10-15T02:29:02.882Z, 36.82
2023-10-15T02:30:02.874Z, 36.75
2023-10-15T02:31:02.897Z, 36.76
2023-10-15T02:32:02.929Z, 36.77
2023-10-15T02:33:02.937Z, 36.74
2023-10-15T02:34:03.021Z, 36.73
2023-10-15T02:35:03.000Z, 36.72
2023-10-15T02:36:02.958Z, 36.72
2023-10-15T02:37:02.937Z, 36.76
2023-10-15T02:38:02.944Z, 36.74
2023-10-15T02:39:02.934Z, 36.74
2023-10-15T02:40:03.033Z, 36.73
2023-10-15T02:41:03.003Z, 36.75
2023-10-15T02:42:02.984Z, 36.72
2023-10-15T02:43:02.978Z, 36.71
2023-10-15T02:44:03.021Z, 36.71
2023-10-15T02:45:03.046Z, 36.69
2023-10-15T02:46:03.045Z, 36.66
2023-10-15T02:47:03.164Z, 36.69
2023-10-15T02:48:03.051Z, 36.74
2023-10-15T02:49:03.088Z, 36.70
2023-10-15T02:50:03.152Z, 36.70
2023-10-15T02:51:03.064Z, 36.67
2023-10-15T02:52:03.082Z, 36.69
2023-10-15T02:53:03.547Z, 36.70
2023-10-15T02:54:03.210Z, 36.69
2023-10-15T02:55:03.154Z, 36.66
2023-10-15T02:56:03.247Z, 36.66
2023-10-15T02:57:03.165Z, 36.61
2023-10-15T02:58:03.456Z, 36.62
2023-10-15T02:59:03.184Z, 36.61
2023-10-15T03:00:03.169Z, 36.58
2023-10-15T03:01:03.251Z, 36.60
2023-10-15T03:02:03.358Z, 36.58
2023-10-15T03:03:03.585Z, 36.56
2023-10-15T03:04:03.309Z, 36.56
2023-10-15T03:05:03.334Z, 36.61
2023-10-15T03:06:03.255Z, 36.60
2023-10-15T03:07:03.261Z, 36.60
2023-10-15T03:08:03.603Z, 36.56
2023-10-15T03:09:03.304Z, 36.58
2023-10-15T03:10:03.328Z, 36.57
2023-10-15T03:11:03.331Z, 36.55
2023-10-15T03:12:03.313Z, 36.55
2023-10-15T03:13:03.403Z, 36.57
2023-10-15T03:14:03.456Z, 36.51
2023-10-15T03:15:03.452Z, 36.48
2023-10-15T03:16:03.401Z, 36.50
2023-10-15T03:17:03.460Z, 36.47
2023-10-15T03:18:03.507Z, 36.45
2023-10-15T03:19:03.414Z, 36.43
2023-10-15T03:20:03.556Z, 36.49
2023-10-15T03:21:03.496Z, 36.47
2023-10-15T03:22:03.467Z, 36.42
2023-10-15T03:23:03.514Z, 36.43
2023-10-15T03:24:03.487Z, 36.45
2023-10-15T03:25:03.528Z, 36.45
2023-10-15T03:26:03.582Z, 36.46
2023-10-15T03:27:03.524Z, 36.46
2023-10-15T03:28:03.530Z, 36.47
2023-10-15T03:29:03.679Z, 36.46
2023-10-15T03:30:03.605Z, 36.45
2023-10-15T03:31:03.603Z, 36.58
2023-10-15T03:32:03.830Z, 37.45
2023-10-15T03:33:03.635Z, 38.43
2023-10-15T03:34:03.606Z, 39.61
2023-10-15T03:35:03.725Z, 40.27
2023-10-15T03:36:03.674Z, 40.70
2023-10-15T03:37:03.689Z, 41.08
2023-10-15T03:38:03.678Z, 41.30
2023-10-15T03:39:03.669Z, 41.43
2023-10-15T03:40:03.736Z, 41.59
2023-10-15T03:41:03.772Z, 41.77
2023-10-15T03:42:03.774Z, 41.99
2023-10-15T03:43:03.743Z, 42.16
2023-10-15T03:44:03.849Z, 42.30
2023-10-15T03:45:03.763Z, 42.49
2023-10-15T03:46:03.772Z, 42.60
2023-10-15T03:47:03.808Z, 42.74
2023-10-15T03:48:03.882Z, 42.87
2023-10-15T03:49:03.783Z, 43.00
2023-10-15T03:50:03.808Z, 43.12
2023-10-15T03:51:03.852Z, 43.22
2023-10-15T03:52:03.815Z, 43.28
2023-10-15T03:53:03.847Z, 43.35
2023-10-15T03:54:03.843Z, 43.43
2023-10-15T03:55:03.847Z, 43.50
2023-10-15T03:56:03.872Z, 43.57
2023-10-15T03:57:03.850Z, 43.61
2023-10-15T03:58:03.854Z, 43.62
2023-10-15T03:59:03.946Z, 43.62
2023-10-15T04:00:03.873Z, 43.58
2023-10-15T04:01:03.914Z, 43.62
2023-10-15T04:02:03.915Z, 43.69
2023-10-15T04:03:03.948Z, 46.66
2023-10-15T04:04:03.924Z, 50.16
2023-10-15T04:05:03.988Z, 53.88
2023-10-15T04:06:03.947Z, 58.23
2023-10-15T04:07:03.946Z, 66.48
2023-10-15T04:08:03.993Z, 64.62
2023-10-15T04:09:04.075Z, 55.69
2023-10-15T04:10:03.997Z, 54.82
2023-10-15T04:11:04.111Z, 56.12
2023-10-15T04:12:04.103Z, 58.13
2023-10-15T04:13:04.115Z, 61.79
2023-10-15T04:14:04.140Z, 69.85
2023-10-15T04:15:04.087Z, 60.54
2023-10-15T04:16:04.087Z, 56.70
2023-10-15T04:17:04.180Z, 56.03
2023-10-15T04:18:04.227Z, 57.50
2023-10-15T04:19:04.099Z, 59.00
2023-10-15T04:20:04.167Z, 60.28
2023-10-15T04:21:04.128Z, 61.48
2023-10-15T04:22:04.186Z, 64.60
2023-10-15T04:23:04.253Z, 65.58
2023-10-15T04:24:04.182Z, 65.53
2023-10-15T04:25:04.241Z, 65.21
2023-10-15T04:26:04.281Z, 64.84
2023-10-15T04:27:04.274Z, 64.49
2023-10-15T04:28:04.250Z, 64.25
2023-10-15T04:29:04.341Z, 64.10
2023-10-15T04:30:04.284Z, 64.04
2023-10-15T04:31:04.356Z, 63.88
2023-10-15T04:32:04.395Z, 63.76
2023-10-15T04:33:04.412Z, 63.60
2023-10-15T04:34:04.340Z, 63.47
2023-10-15T04:35:04.412Z, 63.38
2023-10-15T04:36:04.395Z, 63.18
2023-10-15T04:37:04.344Z, 63.07
2023-10-15T04:38:04.457Z, 62.91
2023-10-15T04:39:04.380Z, 62.80
2023-10-15T04:41:04.462Z, 62.46
2023-10-15T04:42:04.399Z, 62.34
2023-10-15T04:43:04.401Z, 62.17
2023-10-15T04:44:04.469Z, 62.07
2023-10-15T04:45:04.478Z, 62.00
2023-10-15T04:46:04.459Z, 61.78
2023-10-15T04:47:04.566Z, 61.60
2023-10-15T04:48:04.506Z, 61.50
2023-10-15T04:49:04.464Z, 61.44
2023-10-15T04:50:04.613Z, 61.26
2023-10-15T04:51:04.519Z, 61.10
2023-10-15T04:52:04.569Z, 61.05
2023-10-15T04:53:04.561Z, 60.89
2023-10-15T04:54:04.599Z, 60.79
2023-10-15T04:55:04.543Z, 60.60
2023-10-15T04:56:04.747Z, 60.48
2023-10-15T04:57:04.592Z, 60.37
2023-10-15T04:58:04.641Z, 60.17
2023-10-15T04:59:04.664Z, 60.04
2023-10-15T05:00:04.612Z, 59.92
2023-10-15T05:01:04.699Z, 59.75
2023-10-15T05:02:04.633Z, 60.39
2023-10-15T05:03:04.688Z, 61.17
2023-10-15T05:04:04.632Z, 61.43
2023-10-15T05:05:04.664Z, 61.37
2023-10-15T05:06:04.730Z, 61.18
2023-10-15T05:07:04.692Z, 60.96
2023-10-15T05:08:04.797Z, 60.52
2023-10-15T05:09:04.738Z, 60.08
2023-10-15T05:10:04.762Z, 59.79
2023-10-15T05:11:04.786Z, 59.48
2023-10-15T05:12:04.759Z, 59.20
2023-10-15T05:13:04.770Z, 58.97
2023-10-15T05:14:04.784Z, 58.75
2023-10-15T05:15:04.773Z, 58.58
2023-10-15T05:16:04.852Z, 58.40
2023-10-15T05:17:04.843Z, 58.96
2023-10-15T05:18:04.841Z, 59.43
2023-10-15T05:19:04.813Z, 59.41
2023-10-15T05:20:04.881Z, 59.05
2023-10-15T05:21:04.945Z, 58.70
2023-10-15T05:22:04.909Z, 58.38
2023-10-15T05:23:05.004Z, 58.09
2023-10-15T05:24:04.925Z, 57.90
2023-10-15T05:25:05.007Z, 57.69
2023-10-15T05:26:04.979Z, 57.49
2023-10-15T05:27:04.950Z, 57.37
2023-10-15T05:28:04.995Z, 57.12
2023-10-15T05:29:05.066Z, 57.02
2023-10-15T05:30:05.060Z, 56.88
2023-10-15T05:31:05.032Z, 56.77
2023-10-15T05:32:05.087Z, 56.67
2023-10-15T05:33:05.145Z, 56.54
2023-10-15T05:34:05.088Z, 56.46
2023-10-15T05:35:05.171Z, 56.26
2023-10-15T05:36:05.082Z, 56.16
2023-10-15T05:37:05.117Z, 56.06
2023-10-15T05:38:05.093Z, 55.97
2023-10-15T05:39:05.141Z, 55.94
2023-10-15T05:40:05.200Z, 55.84
2023-10-15T05:41:05.158Z, 55.70
2023-10-15T05:42:05.116Z, 55.62
2023-10-15T05:43:05.113Z, 55.52
2023-10-15T05:44:05.266Z, 55.43
2023-10-15T05:45:05.219Z, 55.36
2023-10-15T05:46:05.191Z, 55.30
2023-10-15T05:47:05.380Z, 55.18
2023-10-15T05:48:05.304Z, 55.12
2023-10-15T05:49:05.234Z, 55.05
2023-10-15T05:50:05.312Z, 54.97
2023-10-15T05:51:05.264Z, 54.93
2023-10-15T05:52:05.330Z, 54.77
2023-10-15T05:53:05.306Z, 54.75
2023-10-15T05:54:05.347Z, 54.70
2023-10-15T05:55:05.333Z, 54.63
2023-10-15T05:56:05.374Z, 54.66
2023-10-15T05:57:05.314Z, 54.58
2023-10-15T05:58:05.320Z, 54.49
2023-10-15T05:59:05.364Z, 54.37
2023-10-15T06:00:05.341Z, 54.32
2023-10-15T06:01:05.448Z, 54.20
2023-10-15T06:02:05.424Z, 54.18
2023-10-15T06:03:05.489Z, 54.11
2023-10-15T06:04:05.425Z, 54.04
2023-10-15T06:05:05.423Z, 53.96
2023-10-15T06:06:05.496Z, 53.98
2023-10-15T06:07:05.452Z, 53.85
2023-10-15T06:08:05.636Z, 53.81
2023-10-15T06:09:05.486Z, 53.72
2023-10-15T06:10:05.473Z, 53.71
2023-10-15T06:11:05.597Z, 53.62
2023-10-15T06:12:05.461Z, 53.58
2023-10-15T06:13:05.552Z, 53.48
2023-10-15T06:14:05.586Z, 53.47
2023-10-15T06:15:05.590Z, 53.42
2023-10-15T06:16:05.553Z, 53.32
2023-10-15T06:17:05.630Z, 53.26
2023-10-15T06:18:05.656Z, 53.27
2023-10-15T06:19:05.545Z, 53.25
2023-10-15T06:20:05.677Z, 53.20
2023-10-15T06:21:05.652Z, 53.13
2023-10-15T06:22:05.687Z, 53.07
2023-10-15T06:23:05.812Z, 53.04
2023-10-15T06:24:05.703Z, 53.00
2023-10-15T06:25:05.693Z, 52.98
2023-10-15T06:26:05.767Z, 52.96
2023-10-15T06:27:05.709Z, 52.92
2023-10-15T06:28:05.755Z, 52.81
2023-10-15T06:29:05.785Z, 52.71
2023-10-15T06:30:05.743Z, 52.69
2023-10-15T06:31:05.814Z, 52.75
2023-10-15T06:32:05.778Z, 52.74
2023-10-15T06:33:05.784Z, 52.67
2023-10-15T06:34:05.734Z, 52.65
2023-10-15T06:35:05.781Z, 52.55
2023-10-15T06:36:05.749Z, 52.45
2023-10-15T06:37:05.818Z, 52.43
2023-10-15T06:38:05.819Z, 52.36
2023-10-15T06:39:05.849Z, 52.29
2023-10-15T06:40:20.813Z, 52.30
2023-10-15T06:41:05.912Z, 52.17
2023-10-15T06:42:05.855Z, 52.12
2023-10-15T06:43:05.852Z, 52.15
2023-10-15T06:44:06.032Z, 52.11
2023-10-15T06:45:05.955Z, 51.96
2023-10-15T06:46:05.962Z, 51.97
2023-10-15T06:47:06.085Z, 52.02
2023-10-15T06:48:06.030Z, 51.96
2023-10-15T06:49:05.946Z, 51.94
2023-10-15T06:50:06.044Z, 51.92
2023-10-15T06:51:05.969Z, 51.93
2023-10-15T06:52:05.956Z, 51.88
2023-10-15T06:53:06.028Z, 51.80
2023-10-15T06:54:05.985Z, 51.77
2023-10-15T06:55:05.989Z, 51.76
2023-10-15T06:56:06.022Z, 51.69
2023-10-15T06:57:06.013Z, 51.68
2023-10-15T06:58:05.997Z, 51.62
2023-10-15T06:59:06.137Z, 51.62
2023-10-15T07:00:06.061Z, 51.54
2023-10-15T07:01:06.073Z, 51.50
2023-10-15T07:02:06.072Z, 51.56
2023-10-15T07:03:06.158Z, 51.51
2023-10-15T07:04:06.152Z, 51.37
2023-10-15T07:05:06.164Z, 51.35
2023-10-15T07:06:06.184Z, 51.32
2023-10-15T07:07:06.160Z, 51.27
2023-10-15T07:08:06.188Z, 51.22
2023-10-15T07:09:06.180Z, 51.15
2023-10-15T07:10:06.194Z, 51.15
2023-10-15T07:11:06.509Z, 51.09
2023-10-15T07:12:06.225Z, 51.13
2023-10-15T07:13:06.227Z, 51.07
2023-10-15T07:14:06.312Z, 50.99
2023-10-15T07:15:06.285Z, 50.99
2023-10-15T07:16:06.340Z, 51.01
2023-10-15T07:17:06.368Z, 51.01
2023-10-15T07:18:06.384Z, 50.94
2023-10-15T07:19:06.300Z, 51.00
2023-10-15T07:20:06.315Z, 50.94
2023-10-15T07:21:06.304Z, 50.91
2023-10-15T07:22:06.282Z, 50.92
2023-10-15T07:23:06.429Z, 50.89
2023-10-15T07:24:06.355Z, 50.90
2023-10-15T07:25:06.360Z, 50.87
2023-10-15T07:26:06.407Z, 50.88
2023-10-15T07:27:06.353Z, 50.80
2023-10-15T07:28:06.436Z, 50.77
2023-10-15T07:29:06.500Z, 50.79
2023-10-15T07:30:06.413Z, 50.79
2023-10-15T07:31:06.554Z, 50.76
2023-10-15T07:32:06.516Z, 50.78
2023-10-15T07:33:06.539Z, 50.75
2023-10-15T07:34:06.489Z, 50.74
2023-10-15T07:35:06.516Z, 50.67
2023-10-15T07:36:06.498Z, 50.66
2023-10-15T07:37:06.590Z, 50.61
2023-10-15T07:38:06.669Z, 50.55
2023-10-15T07:39:06.581Z, 50.55
2023-10-15T07:40:06.552Z, 50.38
2023-10-15T07:41:06.615Z, 50.42
2023-10-15T07:42:06.636Z, 50.37
2023-10-15T07:43:06.576Z, 50.33
2023-10-15T07:44:06.730Z, 50.34
2023-10-15T07:45:06.651Z, 50.32
2023-10-15T07:46:06.664Z, 50.19
2023-10-15T07:47:06.744Z, 50.21
2023-10-15T07:48:06.841Z, 50.05
2023-10-15T07:49:06.698Z, 49.96
2023-10-15T07:50:06.767Z, 50.03
2023-10-15T07:51:06.684Z, 50.00
2023-10-15T07:52:06.695Z, 49.95
2023-10-15T07:53:06.868Z, 49.88
2023-10-15T07:54:06.727Z, 49.94
2023-10-15T07:55:06.799Z, 49.90
2023-10-15T07:56:06.806Z, 49.89
2023-10-15T07:57:06.775Z, 49.84
2023-10-15T07:58:06.765Z, 49.77
2023-10-15T07:59:06.793Z, 49.73
2023-10-15T08:00:06.888Z, 49.74
2023-10-15T08:01:12.459Z, 49.76
2023-10-15T08:02:07.029Z, 49.71
2023-10-15T08:03:07.044Z, 49.68
2023-10-15T08:04:06.955Z, 49.67
2023-10-15T08:05:08.134Z, 49.63
2023-10-15T08:06:06.958Z, 49.57
2023-10-15T08:07:07.038Z, 49.55
2023-10-15T08:08:07.239Z, 49.58
2023-10-15T08:09:06.971Z, 49.57
2023-10-15T08:10:06.986Z, 49.48
2023-10-15T08:11:07.044Z, 49.45
2023-10-15T08:12:06.932Z, 49.46
2023-10-15T08:13:07.019Z, 49.40
2023-10-15T08:14:07.019Z, 49.36
2023-10-15T08:15:07.043Z, 49.39
2023-10-15T08:16:07.031Z, 49.31
2023-10-15T08:17:07.074Z, 49.27
2023-10-15T08:18:07.051Z, 49.18
2023-10-15T08:19:06.995Z, 49.12
2023-10-15T08:20:07.122Z, 49.15
2023-10-15T08:21:07.036Z, 49.02
2023-10-15T08:22:07.108Z, 48.98
2023-10-15T08:23:07.227Z, 49.03
2023-10-15T08:24:07.105Z, 48.95
2023-10-15T08:25:07.119Z, 48.87
2023-10-15T08:26:07.146Z, 48.90
2023-10-15T08:27:07.209Z, 48.82
2023-10-15T08:28:07.199Z, 48.79
2023-10-15T08:29:07.222Z, 48.71
2023-10-15T08:30:07.218Z, 48.70
2023-10-15T08:31:07.280Z, 48.67
2023-10-15T08:32:07.238Z, 48.66
2023-10-15T08:33:07.221Z, 48.58
2023-10-15T08:34:07.215Z, 48.62
2023-10-15T08:35:07.280Z, 48.57
2023-10-15T08:36:07.290Z, 48.55
2023-10-15T08:37:07.241Z, 48.48
2023-10-15T08:38:07.367Z, 48.49
2023-10-15T08:39:07.297Z, 48.53
2023-10-15T08:40:07.303Z, 48.51
2023-10-15T08:41:07.405Z, 48.52
2023-10-15T08:42:07.308Z, 48.45
2023-10-15T08:43:07.369Z, 48.37
2023-10-15T08:44:07.452Z, 48.38
2023-10-15T08:45:07.385Z, 48.38
2023-10-15T08:46:07.375Z, 48.31
2023-10-15T08:47:07.464Z, 48.30
2023-10-15T08:48:07.528Z, 48.22
2023-10-15T08:49:07.466Z, 48.19
2023-10-15T08:50:07.473Z, 48.17
2023-10-15T08:51:07.472Z, 48.17
2023-10-15T08:52:07.518Z, 48.09
2023-10-15T08:53:07.510Z, 48.06
2023-10-15T08:54:07.552Z, 48.03
2023-10-15T08:55:07.510Z, 48.05
2023-10-15T08:56:07.636Z, 48.11
2023-10-15T08:57:07.566Z, 48.00
2023-10-15T08:58:07.539Z, 47.98
2023-10-15T08:59:07.623Z, 48.01
2023-10-15T09:00:14.335Z, 47.90
2023-10-15T09:01:07.580Z, 47.98
2023-10-15T09:02:07.733Z, 47.98
2023-10-15T09:03:07.756Z, 47.87
2023-10-15T09:04:07.700Z, 47.80
2023-10-15T09:05:07.674Z, 47.82
2023-10-15T09:06:07.652Z, 47.82
2023-10-15T09:07:07.659Z, 47.78
2023-10-15T09:08:07.924Z, 47.72
2023-10-15T09:09:07.654Z, 47.68
2023-10-15T09:10:07.705Z, 47.69
2023-10-15T09:11:07.792Z, 47.72
2023-10-15T09:12:07.816Z, 47.70
2023-10-15T09:13:07.699Z, 47.69
2023-10-15T09:14:07.804Z, 47.64
2023-10-15T09:15:07.708Z, 47.60
2023-10-15T09:16:07.750Z, 47.59
2023-10-15T09:17:07.768Z, 47.56
2023-10-15T09:18:07.872Z, 47.50
2023-10-15T09:19:07.878Z, 47.54
2023-10-15T09:20:07.862Z, 47.47
2023-10-15T09:21:07.868Z, 47.44
2023-10-15T09:22:07.848Z, 47.43
2023-10-15T09:23:07.874Z, 47.42
2023-10-15T09:24:07.853Z, 47.52
2023-10-15T09:25:07.848Z, 47.42
2023-10-15T09:26:07.997Z, 47.41
2023-10-15T09:27:07.917Z, 47.37
2023-10-15T09:28:07.952Z, 47.27
2023-10-15T09:29:08.012Z, 47.27
2023-10-15T09:30:07.922Z, 47.25
2023-10-15T09:31:08.026Z, 47.22
2023-10-15T09:32:07.990Z, 47.23
2023-10-15T09:33:08.023Z, 47.09
2023-10-15T09:34:07.957Z, 47.10
2023-10-15T09:35:07.986Z, 47.14
2023-10-15T09:36:08.043Z, 47.09
2023-10-15T09:37:08.256Z, 47.13
2023-10-15T09:38:08.105Z, 47.14
2023-10-15T09:39:08.048Z, 47.14
2023-10-15T09:40:08.045Z, 47.11
2023-10-15T09:41:08.225Z, 47.15
2023-10-15T09:42:08.099Z, 47.05
2023-10-15T09:43:08.128Z, 46.91
2023-10-15T09:44:08.219Z, 46.96
2023-10-15T09:45:08.180Z, 46.96
2023-10-15T09:46:08.760Z, 46.88
2023-10-15T09:47:08.202Z, 46.92
2023-10-15T09:48:08.290Z, 46.95
2023-10-15T09:49:08.205Z, 46.89
2023-10-15T09:50:08.288Z, 46.85
2023-10-15T09:51:08.229Z, 46.85
2023-10-15T09:52:08.223Z, 46.84
2023-10-15T09:53:08.273Z, 46.79
2023-10-15T09:54:08.219Z, 46.80
2023-10-15T09:55:08.287Z, 46.77
2023-10-15T09:56:08.610Z, 46.74
2023-10-15T09:57:08.261Z, 46.71
2023-10-15T09:58:08.260Z, 46.64
2023-10-15T09:59:08.321Z, 46.57
2023-10-15T10:00:08.365Z, 46.56
2023-10-15T10:01:08.338Z, 46.53
2023-10-15T10:02:10.374Z, 46.50
2023-10-15T10:03:08.385Z, 46.48
2023-10-15T10:04:08.476Z, 46.48
2023-10-15T10:05:08.469Z, 46.45
2023-10-15T10:06:08.378Z, 46.38
2023-10-15T10:07:08.373Z, 46.33
2023-10-15T10:08:08.427Z, 46.33
2023-10-15T10:09:08.484Z, 46.38
2023-10-15T10:10:08.482Z, 46.42
2023-10-15T10:11:08.518Z, 46.36
2023-10-15T10:12:08.504Z, 46.28
2023-10-15T10:13:08.484Z, 46.31
2023-10-15T10:14:08.542Z, 46.31
2023-10-15T10:15:08.498Z, 46.24
2023-10-15T10:16:08.611Z, 46.27
2023-10-15T10:17:08.670Z, 46.29
2023-10-15T10:18:08.793Z, 46.25
2023-10-15T10:19:08.546Z, 46.20
2023-10-15T10:20:08.660Z, 46.19
2023-10-15T10:21:08.654Z, 46.14
2023-10-15T10:22:08.618Z, 46.14
2023-10-15T10:23:08.844Z, 46.08
2023-10-15T10:24:08.601Z, 46.07
2023-10-15T10:25:08.695Z, 46.07
2023-10-15T10:26:08.640Z, 46.01
2023-10-15T10:27:08.701Z, 45.98
2023-10-15T10:28:16.600Z, 46.00
2023-10-15T10:29:08.775Z, 46.00
2023-10-15T10:30:08.705Z, 46.00
2023-10-15T10:31:08.738Z, 45.95
2023-10-15T10:32:08.732Z, 45.94
2023-10-15T10:33:08.779Z, 45.90
2023-10-15T10:34:08.724Z, 45.95
2023-10-15T10:35:08.802Z, 45.90
2023-10-15T10:36:08.796Z, 45.89
2023-10-15T10:37:08.823Z, 45.85
2023-10-15T10:38:08.851Z, 45.82
2023-10-15T10:39:09.205Z, 45.82
2023-10-15T10:40:08.786Z, 45.75
2023-10-15T10:41:24.820Z, 45.76
2023-10-15T10:42:08.837Z, 45.76
2023-10-15T10:43:08.833Z, 45.67
2023-10-15T10:44:23.387Z, 45.72
2023-10-15T10:45:09.080Z, 45.72
2023-10-15T10:46:08.959Z, 45.72
2023-10-15T10:47:08.916Z, 45.70
2023-10-15T10:48:08.989Z, 45.75
2023-10-15T10:49:08.926Z, 45.81
2023-10-15T10:50:09.064Z, 48.16
2023-10-15T10:51:08.945Z, 51.88
2023-10-15T10:52:08.944Z, 56.73
2023-10-15T10:53:09.040Z, 61.40
2023-10-15T10:54:08.945Z, 69.19
2023-10-15T10:55:09.041Z, 58.75
2023-10-15T10:56:09.076Z, 55.01
2023-10-15T10:57:09.058Z, 55.55
2023-10-15T10:58:09.035Z, 57.00
2023-10-15T10:59:09.081Z, 59.66
2023-10-15T11:00:09.032Z, 69.83
2023-10-15T11:01:09.085Z, 64.62
2023-10-15T11:02:09.075Z, 58.03
2023-10-15T11:03:09.154Z, 55.66
2023-10-15T11:04:09.136Z, 55.82
2023-10-15T11:05:09.175Z, 56.19
2023-10-15T11:06:09.109Z, 56.43
2023-10-15T11:07:10.146Z, 56.52
2023-10-15T11:08:09.142Z, 56.59
2023-10-15T11:09:09.209Z, 56.63
2023-10-15T11:10:09.158Z, 56.68
2023-10-15T11:11:09.274Z, 56.68
2023-10-15T11:12:09.203Z, 56.57
2023-10-15T11:13:09.268Z, 56.49
2023-10-15T11:14:09.290Z, 56.44
2023-10-15T11:15:09.276Z, 56.32
2023-10-15T11:16:09.265Z, 56.19
2023-10-15T11:17:09.509Z, 56.11
2023-10-15T11:18:09.446Z, 55.95
2023-10-15T11:19:09.272Z, 55.85
2023-10-15T11:20:09.396Z, 55.70
2023-10-15T11:21:09.282Z, 55.55
2023-10-15T11:22:09.344Z, 55.40
2023-10-15T11:23:09.383Z, 55.21
2023-10-15T11:24:09.414Z, 55.09
2023-10-15T11:25:09.353Z, 54.93
2023-10-15T11:26:09.460Z, 54.78
2023-10-15T11:27:09.348Z, 54.62
2023-10-15T11:28:09.364Z, 54.47
2023-10-15T11:29:09.444Z, 54.34
2023-10-15T11:30:09.408Z, 54.30
2023-10-15T11:31:09.604Z, 54.17
2023-10-15T11:32:09.614Z, 53.95
2023-10-15T11:33:09.520Z, 53.84
2023-10-15T11:34:09.466Z, 53.65
2023-10-15T11:35:09.558Z, 53.52
2023-10-15T11:36:09.537Z, 53.36
2023-10-15T11:37:09.470Z, 53.28
2023-10-15T11:38:09.604Z, 53.15
2023-10-15T11:39:09.495Z, 52.98
2023-10-15T11:40:09.595Z, 52.89
2023-10-15T11:41:09.628Z, 52.78
2023-10-15T11:42:09.775Z, 52.64
2023-10-15T11:43:09.562Z, 52.56
2023-10-15T11:44:09.632Z, 52.41
2023-10-15T11:45:09.556Z, 52.28
2023-10-15T11:46:09.649Z, 52.20
2023-10-15T11:47:09.992Z, 52.12
2023-10-15T11:48:09.738Z, 52.07
2023-10-15T11:49:09.693Z, 51.96
2023-10-15T11:50:09.722Z, 51.89
2023-10-15T11:51:09.784Z, 51.78
2023-10-15T11:52:09.685Z, 51.66
2023-10-15T11:53:09.750Z, 51.58
2023-10-15T11:54:09.706Z, 51.49
2023-10-15T11:55:09.715Z, 51.48
2023-10-15T11:56:09.775Z, 51.37
2023-10-15T11:57:09.710Z, 51.29
2023-10-15T11:58:09.828Z, 51.22
2023-10-15T11:59:09.779Z, 51.08
2023-10-15T12:00:09.863Z, 50.97
2023-10-15T12:01:09.940Z, 50.87
2023-10-15T12:02:09.946Z, 50.81
2023-10-15T12:03:09.967Z, 50.65
2023-10-15T12:04:09.842Z, 50.60
2023-10-15T12:05:10.109Z, 50.53
2023-10-15T12:06:09.947Z, 50.41
2023-10-15T12:07:09.953Z, 50.31
2023-10-15T12:08:10.013Z, 50.27
2023-10-15T12:09:09.938Z, 50.23
2023-10-15T12:10:09.948Z, 50.24
2023-10-15T12:11:10.066Z, 50.14
2023-10-15T12:12:09.987Z, 50.08
2023-10-15T12:13:09.996Z, 50.01
2023-10-15T12:14:10.003Z, 49.92
2023-10-15T12:15:09.957Z, 49.84
2023-10-15T12:16:09.986Z, 49.73
2023-10-15T12:17:10.078Z, 49.71
2023-10-15T12:18:10.061Z, 49.64
2023-10-15T12:19:10.066Z, 49.63
2023-10-15T12:20:19.395Z, 49.48
2023-10-15T12:21:10.031Z, 49.36
2023-10-15T12:22:10.887Z, 49.41
2023-10-15T12:23:10.115Z, 49.38
2023-10-15T12:24:10.162Z, 49.37
2023-10-15T12:25:10.096Z, 49.35
2023-10-15T12:26:10.196Z, 49.30
2023-10-15T12:27:10.150Z, 49.31
2023-10-15T12:28:10.293Z, 49.23
2023-10-15T12:29:24.144Z, 49.16